sensor_id;sensor_type;location;lat;lon;timestamp;pressure;altitude;pressure_sealevel;temperature;humidity
66273;BME280;58450;52.150;4.466;2022-10-31T00:01:25;102016.84;;;12.26;100.00
66273;BME280;58450;52.150;4.466;2022-10-31T00:03:54;102021.72;;;12.23;100.00
66273;BME280;58450;52.150;4.466;2022-10-31T00:06:23;102020.03;;;12.22;100.00
66273;BME280;58450;52.150;4.466;2022-10-31T00:08:53;102015.16;;;12.25;100.00
66273;BME280;58450;52.150;4.466;2022-10-31T00:11:22;102024.09;;;12.26;100.00
66273;BME280;58450;52.150;4.466;2022-10-31T00:13:50;102024.94;;;12.26;100.00
66273;BME280;58450;52.150;4.466;2022-10-31T00:16:21;102021.25;;;12.27;100.00
66273;BME280;58450;52.150;4.466;2022-10-31T00:18:50;102030.16;;;12.20;100.00
66273;BME280;58450;52.150;4.466;2022-10-31T00:21:18;102027.13;;;12.23;100.00
66273;BME280;58450;52.150;4.466;2022-10-31T00:23:46;102036.75;;;12.17;100.00
66273;BME280;58450;52.150;4.466;2022-10-31T00:26:13;102035.91;;;12.08;100.00
66273;BME280;58450;52.150;4.466;2022-10-31T00:28:41;102027.97;;;12.07;100.00
66273;BME280;58450;52.150;4.466;2022-10-31T00:31:10;102030.50;;;12.17;100.00
66273;BME280;58450;52.150;4.466;2022-10-31T00:33:40;102037.25;;;12.21;100.00
66273;BME280;58450;52.150;4.466;2022-10-31T00:36:11;102035.22;;;12.15;100.00
66273;BME280;58450;52.150;4.466;2022-10-31T00:38:40;102041.28;;;12.08;100.00
66273;BME280;58450;52.150;4.466;2022-10-31T00:41:08;102030.16;;;12.11;100.00
66273;BME280;58450;52.150;4.466;2022-10-31T00:43:35;102044.00;;;12.08;100.00
66273;BME280;58450;52.150;4.466;2022-10-31T00:46:03;102038.59;;;12.08;100.00
66273;BME280;58450;52.150;4.466;2022-10-31T00:48:31;102037.09;;;12.14;100.00
66273;BME280;58450;52.150;4.466;2022-10-31T00:51:00;102044.00;;;12.08;100.00
66273;BME280;58450;52.150;4.466;2022-10-31T00:53:27;102041.47;;;12.07;100.00
66273;BME280;58450;52.150;4.466;2022-10-31T00:55:55;102043.31;;;12.06;100.00
66273;BME280;58450;52.150;4.466;2022-10-31T00:58:22;102034.53;;;12.04;100.00
66273;BME280;58450;52.150;4.466;2022-10-31T01:00:50;102033.53;;;12.05;100.00
66273;BME280;58450;52.150;4.466;2022-10-31T01:03:21;102033.03;;;12.10;100.00
66273;BME280;58450;52.150;4.466;2022-10-31T01:05:57;102033.38;;;12.15;100.00
66273;BME280;58450;52.150;4.466;2022-10-31T01:08:27;102033.03;;;12.18;100.00
66273;BME280;58450;52.150;4.466;2022-10-31T01:11:00;102022.06;;;12.20;100.00
66273;BME280;58450;52.150;4.466;2022-10-31T01:13:32;102028.00;;;12.15;100.00
66273;BME280;58450;52.150;4.466;2022-10-31T01:16:01;102022.41;;;12.17;100.00
66273;BME280;58450;52.150;4.466;2022-10-31T01:18:30;102026.28;;;12.14;100.00
66273;BME280;58450;52.150;4.466;2022-10-31T01:21:04;102027.13;;;12.15;100.00
66273;BME280;58450;52.150;4.466;2022-10-31T01:23:34;102023.94;;;12.11;100.00
66273;BME280;58450;52.150;4.466;2022-10-31T01:26:05;102024.94;;;12.10;100.00
66273;BME280;58450;52.150;4.466;2022-10-31T01:28:35;102025.09;;;12.08;100.00
66273;BME280;58450;52.150;4.466;2022-10-31T01:31:06;102021.06;;;12.21;100.00
66273;BME280;58450;52.150;4.466;2022-10-31T01:33:36;102017.88;;;12.17;100.00
66273;BME280;58450;52.150;4.466;2022-10-31T01:36:13;102013.47;;;12.16;100.00
66273;BME280;58450;52.150;4.466;2022-10-31T01:38:43;102009.59;;;12.10;100.00
66273;BME280;58450;52.150;4.466;2022-10-31T01:41:12;102014.31;;;12.00;100.00
66273;BME280;58450;52.150;4.466;2022-10-31T01:43:46;102003.50;;;12.00;100.00
66273;BME280;58450;52.150;4.466;2022-10-31T01:46:18;102010.22;;;11.96;100.00
66273;BME280;58450;52.150;4.466;2022-10-31T01:48:49;102017.13;;;11.90;100.00
66273;BME280;58450;52.150;4.466;2022-10-31T01:51:23;102011.25;;;11.87;100.00
66273;BME280;58450;52.150;4.466;2022-10-31T01:53:58;102007.69;;;11.86;100.00
66273;BME280;58450;52.150;4.466;2022-10-31T01:56:31;102007.19;;;11.82;100.00
66273;BME280;58450;52.150;4.466;2022-10-31T01:59:02;102006.66;;;11.79;100.00
66273;BME280;58450;52.150;4.466;2022-10-31T02:01:35;102005.84;;;11.78;100.00
66273;BME280;58450;52.150;4.466;2022-10-31T02:04:04;102001.25;;;11.71;100.00
66273;BME280;58450;52.150;4.466;2022-10-31T02:06:42;102001.13;;;11.72;100.00
66273;BME280;58450;52.150;4.466;2022-10-31T02:09:14;102000.94;;;11.74;100.00
66273;BME280;58450;52.150;4.466;2022-10-31T02:11:44;102009.69;;;11.76;100.00
66273;BME280;58450;52.150;4.466;2022-10-31T02:14:12;102004.31;;;11.76;100.00
66273;BME280;58450;52.150;4.466;2022-10-31T02:16:40;102004.97;;;11.78;100.00
66273;BME280;58450;52.150;4.466;2022-10-31T02:19:09;102000.59;;;11.77;100.00
66273;BME280;58450;52.150;4.466;2022-10-31T02:21:49;101998.09;;;11.75;100.00
66273;BME280;58450;52.150;4.466;2022-10-31T02:24:40;102006.31;;;11.74;100.00
66273;BME280;58450;52.150;4.466;2022-10-31T02:27:27;102001.25;;;11.71;100.00
66273;BME280;58450;52.150;4.466;2022-10-31T02:30:23;102004.13;;;11.61;100.00
66273;BME280;58450;52.150;4.466;2022-10-31T02:33:07;102000.06;;;11.57;100.00
66273;BME280;58450;52.150;4.466;2022-10-31T02:36:03;101997.03;;;11.51;100.00
66273;BME280;58450;52.150;4.466;2022-10-31T02:38:45;101989.44;;;11.47;100.00
66273;BME280;58450;52.150;4.466;2022-10-31T02:41:26;101994.97;;;11.45;100.00
66273;BME280;58450;52.150;4.466;2022-10-31T02:44:06;101989.91;;;11.42;100.00
66273;BME280;58450;52.150;4.466;2022-10-31T02:46:43;101994.81;;;11.38;100.00
66273;BME280;58450;52.150;4.466;2022-10-31T02:49:23;101994.28;;;11.35;100.00
66273;BME280;58450;52.150;4.466;2022-10-31T02:51:55;101990.72;;;11.26;100.00
66273;BME280;58450;52.150;4.466;2022-10-31T02:54:24;101986.16;;;11.27;100.00
66273;BME280;58450;52.150;4.466;2022-10-31T02:56:57;101988.03;;;11.26;100.00
66273;BME280;58450;52.150;4.466;2022-10-31T02:59:29;101987.34;;;11.24;100.00
66273;BME280;58450;52.150;4.466;2022-10-31T03:02:17;101992.06;;;11.22;100.00
66273;BME280;58450;52.150;4.466;2022-10-31T03:05:16;101991.72;;;11.25;100.00
66273;BME280;58450;52.150;4.466;2022-10-31T03:08:09;101996.25;;;11.24;100.00
66273;BME280;58450;52.150;4.466;2022-10-31T03:10:48;101997.13;;;11.25;100.00
66273;BME280;58450;52.150;4.466;2022-10-31T03:13:30;101987.34;;;11.24;100.00
66273;BME280;58450;52.150;4.466;2022-10-31T03:16:06;101994.22;;;11.18;100.00
66273;BME280;58450;52.150;4.466;2022-10-31T03:18:40;101989.38;;;11.22;100.00
66273;BME280;58450;52.150;4.466;2022-10-31T03:21:21;101993.75;;;11.23;100.00
66273;BME280;58450;52.150;4.466;2022-10-31T03:23:53;101994.75;;;11.22;100.00
66273;BME280;58450;52.150;4.466;2022-10-31T03:26:24;101995.06;;;11.19;100.00
66273;BME280;58450;52.150;4.466;2022-10-31T03:28:57;101989.84;;;11.17;100.00
66273;BME280;58450;52.150;4.466;2022-10-31T03:31:32;101999.78;;;11.17;100.00
66273;BME280;58450;52.150;4.466;2022-10-31T03:34:05;101994.53;;;11.15;100.00
66273;BME280;58450;52.150;4.466;2022-10-31T03:36:38;102003.81;;;11.13;100.00
66273;BME280;58450;52.150;4.466;2022-10-31T03:39:11;101985.09;;;11.11;100.00
66273;BME280;58450;52.150;4.466;2022-10-31T03:41:45;101992.50;;;11.09;100.00
66273;BME280;58450;52.150;4.466;2022-10-31T03:44:19;101992.66;;;11.07;100.00
66273;BME280;58450;52.150;4.466;2022-10-31T03:46:49;101996.53;;;11.05;100.00
66273;BME280;58450;52.150;4.466;2022-10-31T03:49:17;101996.00;;;11.01;100.00
66273;BME280;58450;52.150;4.466;2022-10-31T03:51:49;101990.13;;;10.98;100.00
66273;BME280;58450;52.150;4.466;2022-10-31T03:54:30;101992.13;;;10.96;100.00
66273;BME280;58450;52.150;4.466;2022-10-31T03:57:07;101990.44;;;10.94;100.00
66273;BME280;58450;52.150;4.466;2022-10-31T03:59:44;101991.44;;;10.93;100.00
66273;BME280;58450;52.150;4.466;2022-10-31T04:02:16;101995.97;;;10.93;100.00
66273;BME280;58450;52.150;4.466;2022-10-31T04:04:48;102000.69;;;10.91;100.00
66273;BME280;58450;52.150;4.466;2022-10-31T04:07:21;101994.47;;;10.90;100.00
66273;BME280;58450;52.150;4.466;2022-10-31T04:09:53;101999.84;;;10.90;100.00
66273;BME280;58450;52.150;4.466;2022-10-31T04:12:24;102002.84;;;10.87;100.00
66273;BME280;58450;52.150;4.466;2022-10-31T04:14:54;102006.56;;;10.86;100.00
66273;BME280;58450;52.150;4.466;2022-10-31T04:17:23;102010.56;;;10.82;100.00
66273;BME280;58450;52.150;4.466;2022-10-31T04:19:58;102014.28;;;10.81;100.00
66273;BME280;58450;52.150;4.466;2022-10-31T04:22:28;102013.09;;;10.84;100.00
66273;BME280;58450;52.150;4.466;2022-10-31T04:24:56;102014.09;;;10.83;100.00
66273;BME280;58450;52.150;4.466;2022-10-31T04:27:23;102018.78;;;10.81;100.00
66273;BME280;58450;52.150;4.466;2022-10-31T04:29:51;102014.41;;;10.79;100.00
66273;BME280;58450;52.150;4.466;2022-10-31T04:32:18;102017.59;;;10.75;100.00
66273;BME280;58450;52.150;4.466;2022-10-31T04:34:46;102009.34;;;10.76;100.00
66273;BME280;58450;52.150;4.466;2022-10-31T04:37:13;102009.84;;;10.72;100.00
66273;BME280;58450;52.150;4.466;2022-10-31T04:39:42;102006.28;;;10.71;100.00
66273;BME280;58450;52.150;4.466;2022-10-31T04:42:09;102004.44;;;10.72;100.00
66273;BME280;58450;52.150;4.466;2022-10-31T04:44:37;102001.91;;;10.70;100.00
66273;BME280;58450;52.150;4.466;2022-10-31T04:47:04;101988.63;;;10.69;100.00
66273;BME280;58450;52.150;4.466;2022-10-31T04:49:32;101995.16;;;10.66;100.00
66273;BME280;58450;52.150;4.466;2022-10-31T04:51:59;101994.47;;;10.64;100.00
66273;BME280;58450;52.150;4.466;2022-10-31T04:54:27;101999.16;;;10.62;100.00
66273;BME280;58450;52.150;4.466;2022-10-31T04:56:55;101996.47;;;10.62;100.00
66273;BME280;58450;52.150;4.466;2022-10-31T04:59:23;101990.06;;;10.63;100.00
66273;BME280;58450;52.150;4.466;2022-10-31T05:01:50;101999.34;;;10.60;100.00
66273;BME280;58450;52.150;4.466;2022-10-31T05:04:18;101994.25;;;10.57;100.00
66273;BME280;58450;52.150;4.466;2022-10-31T05:06:45;101990.06;;;10.55;100.00
66273;BME280;58450;52.150;4.466;2022-10-31T05:09:13;101984.50;;;10.56;100.00
66273;BME280;58450;52.150;4.466;2022-10-31T05:11:40;101987.38;;;10.55;100.00
66273;BME280;58450;52.150;4.466;2022-10-31T05:14:09;101992.75;;;10.55;100.00
66273;BME280;58450;52.150;4.466;2022-10-31T05:16:36;101994.91;;;10.51;100.00
66273;BME280;58450;52.150;4.466;2022-10-31T05:19:04;101986.44;;;10.46;100.00
66273;BME280;58450;52.150;4.466;2022-10-31T05:21:31;101987.44;;;10.45;100.00
66273;BME280;58450;52.150;4.466;2022-10-31T05:23:59;101979.97;;;10.39;100.00
66273;BME280;58450;52.150;4.466;2022-10-31T05:26:26;101989.38;;;10.34;100.00
66273;BME280;58450;52.150;4.466;2022-10-31T05:28:53;101978.09;;;10.31;100.00
66273;BME280;58450;52.150;4.466;2022-10-31T05:31:22;101969.47;;;10.27;100.00
66273;BME280;58450;52.150;4.466;2022-10-31T05:33:50;101974.34;;;10.24;100.00
66273;BME280;58450;52.150;4.466;2022-10-31T05:36:17;101967.41;;;10.21;100.00
66273;BME280;58450;52.150;4.466;2022-10-31T05:38:45;101962.50;;;10.16;100.00
66273;BME280;58450;52.150;4.466;2022-10-31T05:41:12;101968.19;;;10.13;100.00
66273;BME280;58450;52.150;4.466;2022-10-31T05:43:39;101971.06;;;10.12;100.00
66273;BME280;58450;52.150;4.466;2022-10-31T05:46:07;101963.00;;;10.12;100.00
66273;BME280;58450;52.150;4.466;2022-10-31T05:48:36;101962.13;;;10.11;100.00
66273;BME280;58450;52.150;4.466;2022-10-31T05:51:03;101959.44;;;10.11;100.00
66273;BME280;58450;52.150;4.466;2022-10-31T05:53:31;101961.13;;;10.12;100.00
66273;BME280;58450;52.150;4.466;2022-10-31T05:55:58;101966.50;;;10.12;100.00
66273;BME280;58450;52.150;4.466;2022-10-31T05:58:26;101959.31;;;10.13;100.00
66273;BME280;58450;52.150;4.466;2022-10-31T06:00:53;101955.75;;;10.12;100.00
66273;BME280;58450;52.150;4.466;2022-10-31T06:03:20;101963.13;;;10.10;100.00
66273;BME280;58450;52.150;4.466;2022-10-31T06:05:49;101964.81;;;10.11;100.00
66273;BME280;58450;52.150;4.466;2022-10-31T06:08:17;101955.25;;;10.09;100.00
66273;BME280;58450;52.150;4.466;2022-10-31T06:10:44;101956.94;;;10.10;100.00
66273;BME280;58450;52.150;4.466;2022-10-31T06:13:11;101960.63;;;10.09;100.00
66273;BME280;58450;52.150;4.466;2022-10-31T06:15:40;101968.38;;;10.12;100.00
66273;BME280;58450;52.150;4.466;2022-10-31T06:18:08;101966.13;;;10.07;100.00
66273;BME280;58450;52.150;4.466;2022-10-31T06:20:36;101967.31;;;10.04;100.00
66273;BME280;58450;52.150;4.466;2022-10-31T06:23:04;101962.94;;;10.03;100.00
66273;BME280;58450;52.150;4.466;2022-10-31T06:25:33;101960.53;;;10.00;100.00
66273;BME280;58450;52.150;4.466;2022-10-31T06:28:00;101964.94;;;10.01;100.00
66273;BME280;58450;52.150;4.466;2022-10-31T06:30:28;101961.56;;;9.99;100.00
66273;BME280;58450;52.150;4.466;2022-10-31T06:33:01;101971.69;;;10.05;100.00
66273;BME280;58450;52.150;4.466;2022-10-31T06:35:30;101965.75;;;10.02;100.00
66273;BME280;58450;52.150;4.466;2022-10-31T06:37:58;101964.94;;;10.01;100.00
66273;BME280;58450;52.150;4.466;2022-10-31T06:40:27;101963.63;;;10.05;100.00
66273;BME280;58450;52.150;4.466;2022-10-31T06:42:58;101962.75;;;10.05;100.00
66273;BME280;58450;52.150;4.466;2022-10-31T06:45:26;101960.06;;;10.05;100.00
66273;BME280;58450;52.150;4.466;2022-10-31T06:47:55;101963.44;;;10.07;100.00
66273;BME280;58450;52.150;4.466;2022-10-31T06:50:23;101961.75;;;10.06;100.00
66273;BME280;58450;52.150;4.466;2022-10-31T06:52:51;101965.00;;;10.10;100.00
66273;BME280;58450;52.150;4.466;2022-10-31T06:55:18;101960.75;;;10.07;100.00
66273;BME280;58450;52.150;4.466;2022-10-31T06:57:53;101966.81;;;10.09;100.00
66273;BME280;58450;52.150;4.466;2022-10-31T07:00:21;101972.06;;;10.11;100.00
66273;BME280;58450;52.150;4.466;2022-10-31T07:02:53;101978.81;;;10.15;100.00
66273;BME280;58450;52.150;4.466;2022-10-31T07:05:22;101979.16;;;10.20;100.00
66273;BME280;58450;52.150;4.466;2022-10-31T07:07:54;101981.41;;;10.25;100.00
66273;BME280;58450;52.150;4.466;2022-10-31T07:10:23;101977.09;;;10.32;100.00
66273;BME280;58450;52.150;4.466;2022-10-31T07:12:55;101980.56;;;10.42;100.00
66273;BME280;58450;52.150;4.466;2022-10-31T07:15:24;101985.63;;;10.45;100.00
66273;BME280;58450;52.150;4.466;2022-10-31T07:17:52;101982.13;;;10.53;100.00
66273;BME280;58450;52.150;4.466;2022-10-31T07:20:19;101989.75;;;10.66;100.00
66273;BME280;58450;52.150;4.466;2022-10-31T07:22:47;101985.13;;;10.76;100.00
66273;BME280;58450;52.150;4.466;2022-10-31T07:25:14;101992.22;;;10.86;100.00
66273;BME280;58450;52.150;4.466;2022-10-31T07:27:42;101996.38;;;11.06;100.00
66273;BME280;58450;52.150;4.466;2022-10-31T07:30:12;101996.47;;;11.31;100.00
66273;BME280;58450;52.150;4.466;2022-10-31T07:32:41;101994.38;;;11.68;100.00
66273;BME280;58450;52.150;4.466;2022-10-31T07:35:11;101988.66;;;12.12;100.00
66273;BME280;58450;52.150;4.466;2022-10-31T07:37:39;101993.03;;;12.47;100.00
66273;BME280;58450;52.150;4.466;2022-10-31T07:40:08;101989.97;;;12.66;100.00
66273;BME280;58450;52.150;4.466;2022-10-31T07:42:37;101983.19;;;12.70;100.00
66273;BME280;58450;52.150;4.466;2022-10-31T07:45:06;101981.53;;;12.61;100.00
66273;BME280;58450;52.150;4.466;2022-10-31T07:47:40;101981.38;;;12.54;100.00
66273;BME280;58450;52.150;4.466;2022-10-31T07:50:10;101978.19;;;12.51;100.00
66273;BME280;58450;52.150;4.466;2022-10-31T07:52:39;101982.72;;;12.42;100.00
66273;BME280;58450;52.150;4.466;2022-10-31T07:55:07;101980.06;;;12.34;100.00
66273;BME280;58450;52.150;4.466;2022-10-31T07:57:36;101982.94;;;12.16;100.00
66273;BME280;58450;52.150;4.466;2022-10-31T08:00:04;101983.59;;;12.34;100.00
66273;BME280;58450;52.150;4.466;2022-10-31T08:02:32;101978.88;;;12.45;100.00
66273;BME280;58450;52.150;4.466;2022-10-31T08:05:01;101983.19;;;12.70;100.00
66273;BME280;58450;52.150;4.466;2022-10-31T08:07:29;101970.81;;;12.84;100.00
66273;BME280;58450;52.150;4.466;2022-10-31T08:09:56;101967.22;;;12.92;100.00
66273;BME280;58450;52.150;4.466;2022-10-31T08:12:24;101969.34;;;13.13;100.00
66273;BME280;58450;52.150;4.466;2022-10-31T08:14:51;101968.41;;;13.29;100.00
66273;BME280;58450;52.150;4.466;2022-10-31T08:17:18;101981.03;;;13.37;100.00
66273;BME280;58450;52.150;4.466;2022-10-31T08:19:46;101986.22;;;13.55;100.00
66273;BME280;58450;52.150;4.466;2022-10-31T08:22:14;101987.31;;;13.69;100.00
66273;BME280;58450;52.150;4.466;2022-10-31T08:24:42;101984.34;;;13.56;100.00
66273;BME280;58450;52.150;4.466;2022-10-31T08:27:09;101991.97;;;13.52;100.00
66273;BME280;58450;52.150;4.466;2022-10-31T08:29:37;101980.00;;;13.47;100.00
66273;BME280;58450;52.150;4.466;2022-10-31T08:32:04;101978.81;;;13.49;100.00
66273;BME280;58450;52.150;4.466;2022-10-31T08:34:32;101983.78;;;13.29;100.00
66273;BME280;58450;52.150;4.466;2022-10-31T08:36:59;101972.22;;;13.12;100.00
66273;BME280;58450;52.150;4.466;2022-10-31T08:39:28;101980.22;;;12.97;100.00
66273;BME280;58450;52.150;4.466;2022-10-31T08:41:55;101977.22;;;12.92;100.00
66273;BME280;58450;52.150;4.466;2022-10-31T08:44:23;101978.06;;;12.84;100.00
66273;BME280;58450;52.150;4.466;2022-10-31T08:46:50;101975.38;;;12.84;100.00
66273;BME280;58450;52.150;4.466;2022-10-31T08:49:17;101979.03;;;12.99;100.00
66273;BME280;58450;52.150;4.466;2022-10-31T08:51:47;101976.69;;;12.96;100.00
66273;BME280;58450;52.150;4.466;2022-10-31T08:54:14;101972.59;;;13.00;100.00
66273;BME280;58450;52.150;4.466;2022-10-31T08:56:43;101969.75;;;13.02;100.00
66273;BME280;58450;52.150;4.466;2022-10-31T08:59:11;101958.97;;;13.25;100.00
66273;BME280;58450;52.150;4.466;2022-10-31T09:01:38;101963.22;;;13.59;100.00
66273;BME280;58450;52.150;4.466;2022-10-31T09:04:05;101971.13;;;13.61;100.00
66273;BME280;58450;52.150;4.466;2022-10-31T09:06:33;101960.34;;;13.53;100.00
66273;BME280;58450;52.150;4.466;2022-10-31T09:09:00;101964.16;;;13.35;100.00
66273;BME280;58450;52.150;4.466;2022-10-31T09:11:29;101964.63;;;13.15;100.00
66273;BME280;58450;52.150;4.466;2022-10-31T09:13:58;101958.34;;;13.15;100.00
66273;BME280;58450;52.150;4.466;2022-10-31T09:16:26;101954.81;;;13.14;100.00
66273;BME280;58450;52.150;4.466;2022-10-31T09:18:53;101951.63;;;13.11;100.00
66273;BME280;58450;52.150;4.466;2022-10-31T09:21:20;101945.53;;;13.09;100.00
66273;BME280;58450;52.150;4.466;2022-10-31T09:23:48;101939.50;;;12.98;100.00
66273;BME280;58450;52.150;4.466;2022-10-31T09:26:15;101946.69;;;13.23;100.00
66273;BME280;58450;52.150;4.466;2022-10-31T09:28:43;101943.19;;;13.37;100.00
66273;BME280;58450;52.150;4.466;2022-10-31T09:31:13;101935.25;;;13.67;100.00
66273;BME280;58450;52.150;4.466;2022-10-31T09:33:41;101934.91;;;13.85;100.00
66273;BME280;58450;52.150;4.466;2022-10-31T09:36:08;101929.72;;;13.99;100.00
66273;BME280;58450;52.150;4.466;2022-10-31T09:38:36;101921.53;;;14.07;100.00
66273;BME280;58450;52.150;4.466;2022-10-31T09:41:08;101916.91;;;14.31;100.00
66273;BME280;58450;52.150;4.466;2022-10-31T09:43:52;101918.97;;;14.29;100.00
66273;BME280;58450;52.150;4.466;2022-10-31T09:46:30;101914.75;;;14.26;100.00
66273;BME280;58450;52.150;4.466;2022-10-31T09:49:28;101914.44;;;14.21;100.00
66273;BME280;58450;52.150;4.466;2022-10-31T09:52:11;101905.88;;;14.17;100.00
66273;BME280;58450;52.150;4.466;2022-10-31T09:54:47;101903.75;;;14.28;100.00
66273;BME280;58450;52.150;4.466;2022-10-31T09:57:23;101898.13;;;14.29;100.00
66273;BME280;58450;52.150;4.466;2022-10-31T09:59:55;101895.69;;;14.34;100.00
66273;BME280;58450;52.150;4.466;2022-10-31T10:02:29;101898.97;;;14.60;100.00
66273;BME280;58450;52.150;4.466;2022-10-31T10:05:03;101889.44;;;14.64;100.00
66273;BME280;58450;52.150;4.466;2022-10-31T10:07:40;101891.59;;;14.69;100.00
66273;BME280;58450;52.150;4.466;2022-10-31T10:10:17;101899.72;;;14.84;100.00
66273;BME280;58450;52.150;4.466;2022-10-31T10:13:17;101888.94;;;15.49;100.00
66273;BME280;58450;52.150;4.466;2022-10-31T10:16:03;101871.56;;;15.87;100.00
66273;BME280;58450;52.150;4.466;2022-10-31T10:18:51;101874.19;;;15.58;100.00
66273;BME280;58450;52.150;4.466;2022-10-31T10:21:37;101880.16;;;15.25;100.00
66273;BME280;58450;52.150;4.466;2022-10-31T10:24:20;101877.69;;;15.09;100.00
66273;BME280;58450;52.150;4.466;2022-10-31T10:27:06;101870.53;;;15.22;100.00
66273;BME280;58450;52.150;4.466;2022-10-31T10:29:49;101866.97;;;15.87;100.00
66273;BME280;58450;52.150;4.466;2022-10-31T10:32:23;101859.44;;;16.60;100.00
66273;BME280;58450;52.150;4.466;2022-10-31T10:34:55;101847.53;;;17.36;100.00
66273;BME280;58450;52.150;4.466;2022-10-31T10:37:30;101839.56;;;17.68;100.00
66273;BME280;58450;52.150;4.466;2022-10-31T10:40:07;101825.78;;;17.56;100.00
66273;BME280;58450;52.150;4.466;2022-10-31T10:42:41;101817.34;;;17.92;100.00
66273;BME280;58450;52.150;4.466;2022-10-31T10:45:34;101818.38;;;18.63;100.00
66273;BME280;58450;52.150;4.466;2022-10-31T10:48:27;101810.81;;;18.20;100.00
66273;BME280;58450;52.150;4.466;2022-10-31T10:51:06;101810.06;;;17.65;100.00
66273;BME280;58450;52.150;4.466;2022-10-31T10:53:49;101813.72;;;16.77;100.00
66273;BME280;58450;52.150;4.466;2022-10-31T10:56:47;101809.16;;;16.29;100.00
66273;BME280;58450;52.150;4.466;2022-10-31T10:59:27;101811.75;;;16.08;100.00
66273;BME280;58450;52.150;4.466;2022-10-31T11:01:56;101823.47;;;16.09;100.00
66273;BME280;58450;52.150;4.466;2022-10-31T11:04:31;101819.88;;;16.08;100.00
66273;BME280;58450;52.150;4.466;2022-10-31T11:07:03;101815.00;;;15.90;100.00
66273;BME280;58450;52.150;4.466;2022-10-31T11:09:33;101804.38;;;15.95;100.00
66273;BME280;58450;52.150;4.466;2022-10-31T11:12:07;101807.91;;;15.96;100.00
66273;BME280;58450;52.150;4.466;2022-10-31T11:14:43;101805.38;;;15.88;100.00
66273;BME280;58450;52.150;4.466;2022-10-31T11:17:20;101807.25;;;15.94;100.00
66273;BME280;58450;52.150;4.466;2022-10-31T11:20:00;101806.56;;;16.14;100.00
66273;BME280;58450;52.150;4.466;2022-10-31T11:22:31;101803.41;;;16.10;100.00
66273;BME280;58450;52.150;4.466;2022-10-31T11:24:59;101799.56;;;16.33;100.00
66273;BME280;58450;52.150;4.466;2022-10-31T11:27:26;101792.13;;;16.55;100.00
66273;BME280;58450;52.150;4.466;2022-10-31T11:30:04;101793.44;;;16.79;100.00
66273;BME280;58450;52.150;4.466;2022-10-31T11:32:33;101787.59;;;16.82;100.00
66273;BME280;58450;52.150;4.466;2022-10-31T11:35:03;101779.28;;;17.04;100.00
66273;BME280;58450;52.150;4.466;2022-10-31T11:37:42;101767.38;;;17.05;100.00
66273;BME280;58450;52.150;4.466;2022-10-31T11:40:17;101768.41;;;17.04;100.00
66273;BME280;58450;52.150;4.466;2022-10-31T11:42:48;101762.97;;;17.45;100.00
66273;BME280;58450;52.150;4.466;2022-10-31T11:45:28;101759.19;;;17.32;100.00
66273;BME280;58450;52.150;4.466;2022-10-31T11:47:59;101751.44;;;17.29;100.00
66273;BME280;58450;52.150;4.466;2022-10-31T11:50:33;101750.41;;;17.37;100.00
66273;BME280;58450;52.150;4.466;2022-10-31T11:53:12;101743.94;;;17.04;100.00
66273;BME280;58450;52.150;4.466;2022-10-31T11:55:44;101741.78;;;16.79;100.00
66273;BME280;58450;52.150;4.466;2022-10-31T11:58:23;101733.00;;;16.71;100.00
66273;BME280;58450;52.150;4.466;2022-10-31T12:00:53;101730.06;;;16.79;100.00
66273;BME280;58450;52.150;4.466;2022-10-31T12:03:37;101725.50;;;16.93;100.00
66273;BME280;58450;52.150;4.466;2022-10-31T12:06:16;101721.75;;;17.27;100.00
66273;BME280;58450;52.150;4.466;2022-10-31T12:08:49;101721.53;;;17.22;100.00
66273;BME280;58450;52.150;4.466;2022-10-31T12:11:31;101708.59;;;17.18;100.00
66273;BME280;58450;52.150;4.466;2022-10-31T12:14:16;101708.97;;;16.94;100.00
66273;BME280;58450;52.150;4.466;2022-10-31T12:16:57;101704.56;;;16.73;100.00
66273;BME280;58450;52.150;4.466;2022-10-31T12:19:36;101700.34;;;16.64;100.00
66273;BME280;58450;52.150;4.466;2022-10-31T12:22:15;101696.97;;;16.42;100.00
66273;BME280;58450;52.150;4.466;2022-10-31T12:25:01;101690.47;;;16.36;100.00
66273;BME280;58450;52.150;4.466;2022-10-31T12:27:57;101681.94;;;16.52;100.00
66273;BME280;58450;52.150;4.466;2022-10-31T12:30:48;101663.78;;;16.80;100.00
66273;BME280;58450;52.150;4.466;2022-10-31T12:33:42;101654.63;;;17.01;100.00
66273;BME280;58450;52.150;4.466;2022-10-31T12:36:29;101646.44;;;17.21;100.00
66273;BME280;58450;52.150;4.466;2022-10-31T12:39:25;101638.41;;;17.53;100.00
66273;BME280;58450;52.150;4.466;2022-10-31T12:42:07;101623.84;;;18.25;100.00
66273;BME280;58450;52.150;4.466;2022-10-31T12:44:56;101620.88;;;18.84;100.00
66273;BME280;58450;52.150;4.466;2022-10-31T12:47:53;101609.28;;;19.52;100.00
66273;BME280;58450;52.150;4.466;2022-10-31T12:50:39;101603.94;;;19.94;100.00
66273;BME280;58450;52.150;4.466;2022-10-31T12:53:28;101597.44;;;19.76;100.00
66273;BME280;58450;52.150;4.466;2022-10-31T12:56:25;101588.22;;;20.32;100.00
66273;BME280;58450;52.150;4.466;2022-10-31T12:59:08;101579.78;;;20.88;100.00
66273;BME280;58450;52.150;4.466;2022-10-31T13:01:46;101574.41;;;21.58;100.00
66273;BME280;58450;52.150;4.466;2022-10-31T13:04:21;101565.00;;;21.65;100.00
66273;BME280;58450;52.150;4.466;2022-10-31T13:07:00;101557.50;;;21.49;100.00
66273;BME280;58450;52.150;4.466;2022-10-31T13:09:31;101544.56;;;20.79;100.00